KMHK/MHK METAR and TAF weather

Enter ICAO airport designator
Station Type Date Time Source
KMHK METAR 2022/01/27 21:52 UTC NOAA

KMHK 272152Z VRB06G14KT 10SM OVC065 08/M06 A3030 RMK AO2 SLP270 T00831061


Station Type Date Time Source
KMHK Decoded METAR 2022/01/27 21:52 UTC NOAA

MANHATTAN REGIONAL AIRPORT, KS, United States (KMHK) 39-08N 96-41W 317M
Jan 27, 2022 - 04:52 PM EST / 2022.01.27 2152 UTC
Wind: Variable at 7 MPH (6 KT) gusting to 16 MPH (14 KT):0
Visibility: 10 mile(s):0
Sky conditions: overcast
Temperature: 46.9 F (8.3 C)
Dew Point: 21.0 F (-6.1 C)
Relative Humidity: 35%
Pressure (altimeter): 30.3 in. Hg (1026 hPa)
ob: KMHK 272152Z VRB06G14KT 10SM OVC065 08/M06 A3030 RMK AO2 SLP270 T00831061
cycle: 22

Station Type Date Time Source
KMHK TAF 2022/01/27 18:22 UTC NOAA

TAF KMHK 271720Z 2718/2818 36009KT P6SM BKN150
FM280000 34003KT P6SM BKN040

Example: see airport list